createdAt,value
2019-03-16T00:02:05.981Z,2.07
2019-03-16T00:07:52.081Z,1.50
2019-03-16T00:13:37.218Z,1.23
2019-03-16T00:19:22.282Z,1.40
2019-03-16T00:25:08.485Z,0.83
2019-03-16T00:30:52.760Z,1.00
2019-03-16T00:33:21.115Z,1.20
2019-03-16T00:39:07.092Z,1.10
2019-03-16T00:45:04.580Z,1.20
2019-03-16T00:50:49.256Z,0.97
2019-03-16T00:56:33.006Z,1.00
2019-03-16T00:59:01.225Z,1.07
2019-03-16T01:01:29.667Z,0.60
2019-03-16T01:07:14.928Z,0.87
2019-03-16T01:12:59.369Z,0.70
2019-03-16T01:15:27.641Z,1.27
2019-03-16T01:17:56.004Z,1.10
2019-03-16T01:20:24.369Z,1.67
2019-03-16T01:22:52.652Z,2.23
2019-03-16T01:25:20.881Z,1.33
2019-03-16T01:27:49.129Z,0.80
2019-03-16T01:30:17.499Z,1.30
2019-03-16T01:32:45.740Z,1.10
2019-03-16T01:35:14.082Z,2.57
2019-03-16T01:37:42.741Z,3.67
2019-03-16T01:40:11.158Z,1.20
2019-03-16T01:42:39.477Z,1.40
2019-03-16T01:48:23.311Z,0.80
2019-03-16T01:54:08.387Z,1.00
2019-03-16T01:59:51.889Z,1.13
2019-03-16T02:05:35.896Z,1.00
2019-03-16T02:11:20.400Z,0.73
2019-03-16T02:16:54.069Z,2.27
2019-03-16T02:22:38.847Z,1.20
2019-03-16T02:25:08.690Z,1.30
2019-03-16T02:30:53.452Z,1.03
2019-03-16T02:36:39.478Z,1.53
2019-03-16T02:42:24.450Z,0.90
2019-03-16T02:44:52.724Z,0.80
2019-03-16T02:47:20.969Z,1.20
2019-03-16T02:53:05.069Z,0.63
2019-03-16T02:55:33.345Z,1.00
2019-03-16T03:01:17.316Z,1.60
2019-03-16T03:03:45.694Z,1.20
2019-03-16T03:06:13.901Z,0.80
2019-03-16T03:11:58.009Z,1.93
2019-03-16T03:14:26.247Z,1.40
2019-03-16T03:16:54.546Z,1.27
2019-03-16T03:19:22.723Z,1.00
2019-03-16T03:21:51.044Z,1.20
2019-03-16T03:24:19.273Z,1.63
2019-03-16T03:26:47.495Z,1.57
2019-03-16T03:29:15.782Z,1.03
2019-03-16T03:34:59.948Z,1.33
2019-03-16T03:40:44.341Z,1.50
2019-03-16T03:46:18.064Z,1.13
2019-03-16T03:48:46.434Z,1.17
2019-03-16T03:51:14.803Z,0.87
2019-03-16T03:53:43.081Z,1.03
2019-03-16T03:56:11.390Z,1.13
2019-03-16T03:58:39.542Z,1.23
2019-03-16T04:01:08.081Z,1.03
2019-03-16T04:03:36.315Z,1.43
2019-03-16T04:09:19.937Z,1.47
2019-03-16T04:15:05.760Z,1.73
2019-03-16T04:20:51.337Z,1.30
2019-03-16T04:26:36.537Z,1.43
2019-03-16T04:32:20.941Z,1.30
2019-03-16T04:38:06.128Z,1.00
2019-03-16T04:43:52.458Z,1.67
2019-03-16T04:49:25.971Z,1.63
2019-03-16T04:55:10.199Z,1.87
2019-03-16T05:00:53.745Z,1.37
2019-03-16T05:06:38.499Z,1.33
2019-03-16T05:12:34.737Z,1.37
2019-03-16T05:15:03.308Z,1.47
2019-03-16T05:17:31.736Z,1.27
2019-03-16T05:19:59.996Z,1.37
2019-03-16T05:22:28.364Z,1.07
2019-03-16T05:28:12.941Z,1.27
2019-03-16T05:33:57.150Z,1.50
2019-03-16T05:36:25.589Z,1.27
2019-03-16T05:38:53.861Z,1.53
2019-03-16T05:44:37.362Z,1.40
2019-03-16T05:50:34.473Z,1.60
2019-03-16T05:53:02.796Z,1.17
2019-03-16T05:58:35.849Z,1.33
2019-03-16T06:04:20.303Z,1.40
2019-03-16T06:09:53.725Z,0.97
2019-03-16T06:12:21.924Z,1.23
2019-03-16T06:14:50.140Z,1.63
2019-03-16T06:17:18.442Z,1.37
2019-03-16T06:19:46.779Z,1.37
2019-03-16T06:22:15.177Z,1.40
2019-03-16T06:24:43.447Z,1.63
2019-03-16T06:30:26.806Z,1.83
2019-03-16T06:36:10.724Z,2.10
2019-03-16T06:38:39.248Z,0.87
2019-03-16T06:41:07.596Z,1.73
2019-03-16T06:43:35.966Z,1.20
2019-03-16T06:49:20.668Z,1.37
2019-03-16T06:51:48.963Z,1.70
2019-03-16T06:57:33.102Z,1.13
2019-03-16T07:03:17.220Z,1.03
2019-03-16T07:08:50.027Z,0.77
2019-03-16T07:14:35.306Z,1.80
2019-03-16T07:17:04.876Z,1.63
2019-03-16T07:22:49.407Z,1.80
2019-03-16T07:25:17.901Z,1.60
2019-03-16T07:30:50.785Z,1.83
2019-03-16T07:33:19.081Z,0.90
2019-03-16T07:35:47.441Z,1.53
2019-03-16T07:41:09.387Z,1.73
2019-03-16T07:46:54.009Z,1.57
2019-03-16T07:52:38.592Z,2.30
2019-03-16T07:55:07.307Z,2.73
2019-03-16T07:57:40.606Z,2.57
2019-03-16T08:00:07.344Z,2.70
2019-03-16T08:02:35.682Z,2.17
2019-03-16T08:05:17.581Z,2.40
2019-03-16T08:10:50.713Z,1.67
2019-03-16T08:13:19.357Z,2.10
2019-03-16T08:15:47.700Z,2.17
2019-03-16T08:21:20.762Z,2.73
2019-03-16T08:27:07.513Z,2.53
2019-03-16T08:29:34.933Z,2.30
2019-03-16T08:32:03.423Z,1.80
2019-03-16T08:34:31.846Z,2.27
2019-03-16T08:37:00.297Z,2.80
2019-03-16T08:39:28.603Z,2.47
2019-03-16T08:45:13.071Z,1.80
2019-03-16T08:47:41.413Z,2.43
2019-03-16T08:50:10.330Z,1.83
2019-03-16T08:55:44.152Z,1.70
2019-03-16T08:58:16.050Z,1.70
2019-03-16T09:00:49.346Z,2.13
2019-03-16T09:06:35.121Z,1.23
2019-03-16T09:09:04.731Z,3.33
2019-03-16T09:11:33.000Z,2.53
2019-03-16T09:14:01.351Z,2.50
2019-03-16T09:16:29.726Z,2.67
2019-03-16T09:18:58.000Z,2.47
2019-03-16T09:21:26.281Z,2.93
2019-03-16T09:23:54.481Z,1.80
2019-03-16T09:26:22.913Z,2.67
2019-03-16T09:29:00.117Z,2.37
2019-03-16T09:31:21.332Z,1.87
2019-03-16T09:33:49.526Z,2.30
2019-03-16T09:39:22.212Z,2.47
2019-03-16T09:45:17.748Z,2.10
2019-03-16T09:50:50.583Z,1.77
2019-03-16T09:56:34.962Z,2.93
2019-03-16T10:02:19.418Z,1.60
2019-03-16T10:08:03.417Z,2.80
2019-03-16T10:13:48.800Z,2.27
2019-03-16T10:19:33.658Z,2.63
2019-03-16T10:25:18.101Z,2.37
2019-03-16T10:27:47.781Z,2.53
2019-03-16T10:30:17.357Z,2.53
2019-03-16T10:32:47.625Z,1.53
2019-03-16T10:38:20.465Z,10.70
2019-03-16T10:44:04.762Z,5.57
2019-03-16T10:46:33.227Z,2.20
2019-03-16T10:49:01.541Z,3.27
2019-03-16T10:54:45.685Z,9.67
2019-03-16T10:57:13.902Z,7.30
2019-03-16T10:59:42.434Z,1.83
2019-03-16T11:02:10.678Z,4.40
2019-03-16T11:04:38.931Z,6.60
2019-03-16T11:10:12.560Z,2.30
2019-03-16T11:12:41.054Z,2.70
2019-03-16T11:18:25.555Z,2.17
2019-03-16T11:24:10.716Z,3.90
2019-03-16T11:26:38.849Z,6.40
2019-03-16T11:29:15.334Z,3.70
2019-03-16T11:31:45.878Z,5.27
2019-03-16T11:34:14.534Z,3.80
2019-03-16T11:40:00.833Z,3.33
2019-03-16T11:42:36.143Z,4.37
2019-03-16T11:45:08.537Z,5.60
2019-03-16T11:50:59.578Z,3.03
2019-03-16T11:53:35.398Z,3.60
2019-03-16T11:56:17.012Z,3.17
2019-03-16T11:58:36.094Z,2.30
2019-03-16T12:04:22.329Z,1.77
2019-03-16T12:06:54.494Z,2.60
2019-03-16T12:09:22.777Z,2.27
2019-03-16T12:11:56.708Z,2.70
2019-03-16T12:14:31.953Z,2.33
2019-03-16T12:17:00.647Z,1.70
2019-03-16T12:19:29.589Z,2.20
2019-03-16T12:25:14.805Z,1.90
2019-03-16T12:27:48.324Z,2.40
2019-03-16T12:33:33.285Z,2.27
2019-03-16T12:39:20.538Z,2.83
2019-03-16T12:41:49.842Z,7.57
2019-03-16T12:47:46.480Z,12.73
2019-03-16T12:53:30.769Z,8.03
2019-03-16T12:59:16.443Z,4.60
2019-03-16T13:05:04.218Z,9.23
2019-03-16T13:07:39.737Z,5.60
2019-03-16T13:10:10.593Z,4.60
2019-03-16T13:12:43.729Z,3.80
2019-03-16T13:15:13.374Z,2.67
2019-03-16T13:21:14.029Z,2.43
2019-03-16T13:27:05.283Z,8.90
2019-03-16T13:29:34.926Z,8.93
2019-03-16T13:32:04.525Z,7.13
2019-03-16T13:34:32.941Z,4.53
2019-03-16T13:40:19.272Z,3.20
2019-03-16T13:42:49.944Z,2.50
2019-03-16T13:48:23.243Z,2.67
2019-03-16T13:54:06.610Z,3.37
2019-03-16T13:59:50.308Z,1.33
2019-03-16T14:05:34.872Z,6.40
2019-03-16T14:08:03.247Z,7.67
2019-03-16T14:10:32.964Z,2.43
2019-03-16T14:13:01.115Z,2.03
2019-03-16T14:15:29.540Z,2.47
2019-03-16T14:17:58.399Z,2.43
2019-03-16T14:20:27.002Z,3.03
2019-03-16T14:23:01.755Z,2.80
2019-03-16T14:25:33.697Z,2.90
2019-03-16T14:28:05.608Z,2.63
2019-03-16T14:30:41.285Z,4.47
2019-03-16T14:33:06.688Z,3.97
2019-03-16T14:35:35.105Z,3.03
2019-03-16T14:38:04.819Z,3.20
2019-03-16T14:40:33.115Z,3.27
2019-03-16T14:43:05.098Z,3.30
2019-03-16T14:45:33.624Z,4.33
2019-03-16T14:48:02.645Z,3.63
2019-03-16T14:50:31.527Z,3.13
2019-03-16T14:53:00.872Z,3.00
2019-03-16T14:55:30.258Z,3.13
2019-03-16T14:57:59.717Z,3.37
2019-03-16T15:00:37.635Z,3.57
2019-03-16T15:02:59.971Z,3.80
2019-03-16T15:05:30.137Z,3.03
2019-03-16T15:07:58.316Z,3.43
2019-03-16T15:10:26.760Z,2.90
2019-03-16T15:13:01.260Z,2.93
2019-03-16T15:15:38.809Z,2.53
2019-03-16T15:18:10.162Z,4.10
2019-03-16T15:20:45.249Z,3.53
2019-03-16T15:23:17.654Z,3.37
2019-03-16T15:25:49.445Z,4.13
2019-03-16T15:28:25.156Z,2.80
2019-03-16T15:30:55.719Z,3.47
2019-03-16T15:33:25.009Z,3.23
2019-03-16T15:35:54.015Z,4.00
2019-03-16T15:38:24.002Z,3.40
2019-03-16T15:40:54.233Z,3.13
2019-03-16T15:43:24.820Z,3.37
2019-03-16T15:45:52.918Z,3.90
2019-03-16T15:48:21.365Z,3.27
2019-03-16T15:50:49.642Z,4.27
2019-03-16T15:53:17.939Z,3.90
2019-03-16T15:55:46.280Z,2.93
2019-03-16T15:58:14.646Z,4.17
2019-03-16T16:00:42.969Z,4.77
2019-03-16T16:03:11.352Z,4.60
2019-03-16T16:05:39.629Z,4.17
2019-03-16T16:08:07.919Z,4.40
2019-03-16T16:10:36.144Z,5.47
2019-03-16T16:13:04.384Z,9.57
2019-03-16T16:15:32.787Z,6.30
2019-03-16T16:18:01.205Z,6.73
2019-03-16T16:20:29.447Z,6.03
2019-03-16T16:22:57.719Z,3.93
2019-03-16T16:25:26.548Z,4.63
2019-03-16T16:27:54.921Z,4.17
2019-03-16T16:30:23.208Z,3.53
2019-03-16T16:32:51.408Z,4.00
2019-03-16T16:35:19.680Z,4.37
2019-03-16T16:37:49.179Z,4.80
2019-03-16T16:40:18.923Z,5.87
2019-03-16T16:42:47.169Z,5.47
2019-03-16T16:45:15.999Z,4.27
2019-03-16T16:47:44.745Z,4.03
2019-03-16T16:50:14.544Z,3.97
2019-03-16T16:52:42.714Z,4.23
2019-03-16T16:55:11.114Z,4.40
2019-03-16T16:57:39.506Z,3.93
2019-03-16T17:00:09.306Z,3.13
2019-03-16T17:02:37.685Z,4.90
2019-03-16T17:05:06.139Z,4.73
2019-03-16T17:07:34.499Z,4.97
2019-03-16T17:10:03.719Z,4.53
2019-03-16T17:12:34.992Z,5.07
2019-03-16T17:15:03.635Z,5.80
2019-03-16T17:17:35.390Z,9.20
2019-03-16T17:20:02.081Z,20.47
2019-03-16T17:22:30.423Z,17.57
2019-03-16T17:24:58.836Z,13.87
2019-03-16T17:27:27.168Z,15.60
2019-03-16T17:29:55.455Z,12.43
2019-03-16T17:32:23.764Z,16.57
2019-03-16T17:34:52.144Z,15.93
2019-03-16T17:37:20.372Z,10.47
2019-03-16T17:39:48.735Z,14.30
2019-03-16T17:42:18.112Z,8.40
2019-03-16T17:44:46.543Z,8.73
2019-03-16T17:47:15.969Z,6.73
2019-03-16T17:49:44.297Z,10.73
2019-03-16T17:52:12.563Z,10.57
2019-03-16T17:54:40.801Z,7.17
2019-03-16T17:57:09.104Z,7.23
2019-03-16T17:59:37.437Z,13.73
2019-03-16T18:02:06.297Z,7.90
2019-03-16T18:04:34.669Z,6.67
2019-03-16T18:07:02.964Z,6.17
2019-03-16T18:09:31.303Z,6.27
2019-03-16T18:11:59.581Z,8.00
2019-03-16T18:14:27.882Z,6.00
2019-03-16T18:16:56.262Z,6.03
2019-03-16T18:19:24.654Z,10.47
2019-03-16T18:21:52.999Z,9.23
2019-03-16T18:24:21.317Z,9.37
2019-03-16T18:26:49.777Z,5.77
2019-03-16T18:29:18.057Z,4.87
2019-03-16T18:31:46.413Z,8.50
2019-03-16T18:34:14.797Z,9.00
2019-03-16T18:36:43.069Z,14.60
2019-03-16T18:39:11.406Z,14.63
2019-03-16T18:41:39.781Z,13.73
2019-03-16T18:44:08.097Z,12.50
2019-03-16T18:46:36.330Z,10.17
2019-03-16T18:49:04.744Z,12.67
2019-03-16T18:51:32.959Z,12.10
2019-03-16T18:54:01.363Z,14.10
2019-03-16T18:56:29.511Z,15.07
2019-03-16T18:58:58.094Z,10.90
2019-03-16T19:01:26.405Z,11.67
2019-03-16T19:03:54.728Z,16.77
2019-03-16T19:06:23.111Z,14.20
2019-03-16T19:08:51.308Z,15.07
2019-03-16T19:11:19.609Z,9.10
2019-03-16T19:13:47.969Z,7.93
2019-03-16T19:16:16.388Z,7.77
2019-03-16T19:18:45.844Z,5.13
2019-03-16T19:21:14.114Z,8.40
2019-03-16T19:23:42.367Z,7.83
2019-03-16T19:26:10.722Z,6.33
2019-03-16T19:28:39.129Z,8.03
2019-03-16T19:31:07.512Z,11.80
2019-03-16T19:33:35.958Z,15.30
2019-03-16T19:36:04.340Z,12.80
2019-03-16T19:38:32.726Z,13.10
2019-03-16T19:44:33.685Z,9.57
2019-03-16T19:47:01.975Z,11.37
2019-03-16T19:52:46.998Z,13.60
2019-03-16T19:55:15.326Z,8.93
2019-03-16T19:57:43.940Z,8.20
2019-03-16T20:00:13.615Z,7.80
2019-03-16T20:02:50.098Z,9.67
2019-03-16T20:05:11.891Z,7.53
2019-03-16T20:07:40.158Z,7.80
2019-03-16T20:13:25.802Z,22.83
2019-03-16T20:15:54.164Z,15.87
2019-03-16T20:18:22.606Z,22.90
2019-03-16T20:20:50.904Z,20.67
2019-03-16T20:23:19.359Z,14.77
2019-03-16T20:25:48.061Z,15.33
2019-03-16T20:28:16.329Z,29.50
2019-03-16T20:30:44.727Z,32.20
2019-03-16T20:36:29.175Z,25.30
2019-03-16T20:42:13.387Z,23.50
2019-03-16T20:47:57.291Z,12.97
2019-03-16T20:53:41.843Z,9.10
2019-03-16T20:59:27.201Z,15.07
2019-03-16T21:05:11.808Z,25.73
2019-03-16T21:10:43.935Z,13.90
2019-03-16T21:13:13.788Z,13.33
2019-03-16T21:15:42.142Z,11.60
2019-03-16T21:18:10.453Z,12.03
2019-03-16T21:23:55.089Z,7.67
2019-03-16T21:29:42.179Z,9.93
2019-03-16T21:35:26.177Z,11.20
2019-03-16T21:37:54.427Z,12.37
2019-03-16T21:43:39.462Z,12.37
2019-03-16T21:49:35.292Z,8.27
2019-03-16T21:55:18.869Z,10.40
2019-03-16T22:01:04.102Z,9.57
2019-03-16T22:06:48.787Z,10.20
2019-03-16T22:09:16.961Z,10.30
2019-03-16T22:11:45.227Z,12.23
2019-03-16T22:17:29.109Z,8.53
2019-03-16T22:23:13.842Z,8.13
2019-03-16T22:25:42.274Z,23.27
2019-03-16T22:31:26.742Z,19.43
2019-03-16T22:37:11.118Z,18.30
2019-03-16T22:42:42.907Z,23.53
2019-03-16T22:45:11.725Z,29.00
2019-03-16T22:47:40.165Z,17.30
2019-03-16T22:53:25.040Z,17.67
2019-03-16T22:55:53.376Z,17.77
2019-03-16T22:58:21.689Z,15.70
2019-03-16T23:00:51.696Z,11.53
2019-03-16T23:03:20.514Z,9.97
2019-03-16T23:05:48.762Z,10.20
2019-03-16T23:08:17.207Z,11.13
2019-03-16T23:10:45.777Z,8.97
2019-03-16T23:13:14.246Z,8.50
2019-03-16T23:15:42.529Z,9.63
2019-03-16T23:18:10.859Z,9.73
2019-03-16T23:20:39.129Z,10.10
2019-03-16T23:23:07.449Z,8.50
2019-03-16T23:25:35.649Z,7.77
2019-03-16T23:28:04.109Z,8.23
2019-03-16T23:30:32.448Z,7.90
2019-03-16T23:33:01.073Z,8.77
2019-03-16T23:35:29.397Z,9.77
2019-03-16T23:41:13.731Z,26.27
2019-03-16T23:46:58.045Z,34.23
2019-03-16T23:52:41.658Z,20.87
2019-03-16T23:55:09.936Z,18.37
